sensor_id;sensor_type;location;lat;lon;timestamp;temperature;humidity
3756;DHT22;1893;52.526;13.360;2024-01-07T00:01:48;-0.60;99.90
3756;DHT22;1893;52.526;13.360;2024-01-07T00:04:18;-0.70;99.90
3756;DHT22;1893;52.526;13.360;2024-01-07T00:06:44;-0.70;99.90
3756;DHT22;1893;52.526;13.360;2024-01-07T00:09:11;-0.80;99.90
3756;DHT22;1893;52.526;13.360;2024-01-07T00:11:38;-0.90;99.90
3756;DHT22;1893;52.526;13.360;2024-01-07T00:14:03;-0.80;99.90
3756;DHT22;1893;52.526;13.360;2024-01-07T00:16:29;-0.80;99.90
3756;DHT22;1893;52.526;13.360;2024-01-07T00:18:54;-0.80;99.90
3756;DHT22;1893;52.526;13.360;2024-01-07T00:21:20;-0.80;99.90
3756;DHT22;1893;52.526;13.360;2024-01-07T00:23:46;-0.80;99.90
3756;DHT22;1893;52.526;13.360;2024-01-07T00:26:11;-0.80;99.90
3756;DHT22;1893;52.526;13.360;2024-01-07T00:28:37;-0.80;99.90
3756;DHT22;1893;52.526;13.360;2024-01-07T00:31:03;-0.90;99.90
3756;DHT22;1893;52.526;13.360;2024-01-07T00:33:31;-0.90;99.90
3756;DHT22;1893;52.526;13.360;2024-01-07T00:35:57;-1.00;99.90
3756;DHT22;1893;52.526;13.360;2024-01-07T00:38:22;-1.00;99.90
3756;DHT22;1893;52.526;13.360;2024-01-07T00:40:48;-0.90;99.90
3756;DHT22;1893;52.526;13.360;2024-01-07T00:43:14;-0.90;99.90
3756;DHT22;1893;52.526;13.360;2024-01-07T00:45:39;-1.00;99.90
3756;DHT22;1893;52.526;13.360;2024-01-07T00:48:05;-1.00;99.90
3756;DHT22;1893;52.526;13.360;2024-01-07T00:50:31;-1.00;99.90
3756;DHT22;1893;52.526;13.360;2024-01-07T00:52:56;-1.00;99.90
3756;DHT22;1893;52.526;13.360;2024-01-07T00:55:22;-1.00;99.90
3756;DHT22;1893;52.526;13.360;2024-01-07T00:57:49;-0.90;99.90
3756;DHT22;1893;52.526;13.360;2024-01-07T01:00:15;-0.90;99.90
3756;DHT22;1893;52.526;13.360;2024-01-07T01:02:41;-1.00;99.90
3756;DHT22;1893;52.526;13.360;2024-01-07T01:05:07;-1.00;99.90
3756;DHT22;1893;52.526;13.360;2024-01-07T01:07:32;-1.00;99.90
3756;DHT22;1893;52.526;13.360;2024-01-07T01:09:58;-1.00;99.90
3756;DHT22;1893;52.526;13.360;2024-01-07T01:12:24;-1.00;99.90
3756;DHT22;1893;52.526;13.360;2024-01-07T01:14:49;-1.10;99.90
3756;DHT22;1893;52.526;13.360;2024-01-07T01:17:15;-1.10;99.90
3756;DHT22;1893;52.526;13.360;2024-01-07T01:19:41;-1.10;99.90
3756;DHT22;1893;52.526;13.360;2024-01-07T01:22:06;-1.00;99.90
3756;DHT22;1893;52.526;13.360;2024-01-07T01:24:32;-1.00;99.90
3756;DHT22;1893;52.526;13.360;2024-01-07T01:26:57;-1.20;99.90
3756;DHT22;1893;52.526;13.360;2024-01-07T01:29:23;-1.20;99.90
3756;DHT22;1893;52.526;13.360;2024-01-07T01:31:49;-1.30;99.90
3756;DHT22;1893;52.526;13.360;2024-01-07T01:34:16;-1.30;99.90
3756;DHT22;1893;52.526;13.360;2024-01-07T01:36:42;-1.30;99.90
3756;DHT22;1893;52.526;13.360;2024-01-07T01:39:07;-1.30;99.90
3756;DHT22;1893;52.526;13.360;2024-01-07T01:41:33;-1.40;99.90
3756;DHT22;1893;52.526;13.360;2024-01-07T01:43:59;-1.30;99.90
3756;DHT22;1893;52.526;13.360;2024-01-07T01:46:26;-1.40;99.90
3756;DHT22;1893;52.526;13.360;2024-01-07T01:48:52;-1.40;99.90
3756;DHT22;1893;52.526;13.360;2024-01-07T01:51:18;-1.40;99.90
3756;DHT22;1893;52.526;13.360;2024-01-07T01:53:47;-1.40;99.90
3756;DHT22;1893;52.526;13.360;2024-01-07T01:56:14;-1.40;99.90
3756;DHT22;1893;52.526;13.360;2024-01-07T01:58:42;-1.60;99.90
3756;DHT22;1893;52.526;13.360;2024-01-07T02:01:08;-1.60;99.90
3756;DHT22;1893;52.526;13.360;2024-01-07T02:03:33;-1.60;99.90
3756;DHT22;1893;52.526;13.360;2024-01-07T02:05:59;-1.50;99.90
3756;DHT22;1893;52.526;13.360;2024-01-07T02:08:25;-1.50;99.90
3756;DHT22;1893;52.526;13.360;2024-01-07T02:10:51;-1.60;99.90
3756;DHT22;1893;52.526;13.360;2024-01-07T02:13:17;-1.50;99.90
3756;DHT22;1893;52.526;13.360;2024-01-07T02:15:43;-1.70;99.90
3756;DHT22;1893;52.526;13.360;2024-01-07T02:18:09;-1.70;99.90
3756;DHT22;1893;52.526;13.360;2024-01-07T02:20:35;-1.70;99.90
3756;DHT22;1893;52.526;13.360;2024-01-07T02:23:02;-1.70;99.90
3756;DHT22;1893;52.526;13.360;2024-01-07T02:25:27;-1.60;99.90
3756;DHT22;1893;52.526;13.360;2024-01-07T02:27:53;-1.60;99.90
3756;DHT22;1893;52.526;13.360;2024-01-07T02:30:18;-1.70;99.90
3756;DHT22;1893;52.526;13.360;2024-01-07T02:32:44;-1.70;99.90
3756;DHT22;1893;52.526;13.360;2024-01-07T02:35:10;-1.70;99.90
3756;DHT22;1893;52.526;13.360;2024-01-07T02:37:37;-1.70;99.90
3756;DHT22;1893;52.526;13.360;2024-01-07T02:40:03;-1.80;99.90
3756;DHT22;1893;52.526;13.360;2024-01-07T02:42:28;-1.90;99.90
3756;DHT22;1893;52.526;13.360;2024-01-07T02:44:54;-1.90;99.90
3756;DHT22;1893;52.526;13.360;2024-01-07T02:47:19;-1.90;99.90
3756;DHT22;1893;52.526;13.360;2024-01-07T02:49:45;-2.00;99.90
3756;DHT22;1893;52.526;13.360;2024-01-07T02:52:11;-2.00;99.90
3756;DHT22;1893;52.526;13.360;2024-01-07T02:54:36;-2.10;99.90
3756;DHT22;1893;52.526;13.360;2024-01-07T02:57:02;-2.10;99.90
3756;DHT22;1893;52.526;13.360;2024-01-07T02:59:27;-2.20;99.90
3756;DHT22;1893;52.526;13.360;2024-01-07T03:01:53;-2.10;99.90
3756;DHT22;1893;52.526;13.360;2024-01-07T03:04:19;-2.20;99.90
3756;DHT22;1893;52.526;13.360;2024-01-07T03:06:44;-2.10;99.90
3756;DHT22;1893;52.526;13.360;2024-01-07T03:09:10;-2.10;99.90
3756;DHT22;1893;52.526;13.360;2024-01-07T03:11:40;-2.20;99.90
3756;DHT22;1893;52.526;13.360;2024-01-07T03:14:10;-2.20;99.90
3756;DHT22;1893;52.526;13.360;2024-01-07T03:16:35;-2.20;99.90
3756;DHT22;1893;52.526;13.360;2024-01-07T03:19:01;-2.30;99.90
3756;DHT22;1893;52.526;13.360;2024-01-07T03:21:28;-2.30;99.90
3756;DHT22;1893;52.526;13.360;2024-01-07T03:23:53;-2.10;99.90
3756;DHT22;1893;52.526;13.360;2024-01-07T03:26:20;-2.20;99.90
3756;DHT22;1893;52.526;13.360;2024-01-07T03:28:46;-2.30;99.90
3756;DHT22;1893;52.526;13.360;2024-01-07T03:31:13;-2.20;99.90
3756;DHT22;1893;52.526;13.360;2024-01-07T03:33:40;-2.30;99.90
3756;DHT22;1893;52.526;13.360;2024-01-07T03:36:10;-2.30;99.90
3756;DHT22;1893;52.526;13.360;2024-01-07T03:38:36;-2.30;99.90
3756;DHT22;1893;52.526;13.360;2024-01-07T03:41:02;-2.30;99.90
3756;DHT22;1893;52.526;13.360;2024-01-07T03:43:28;-2.40;99.90
3756;DHT22;1893;52.526;13.360;2024-01-07T03:45:53;-2.30;99.90
3756;DHT22;1893;52.526;13.360;2024-01-07T03:48:19;-2.40;99.90
3756;DHT22;1893;52.526;13.360;2024-01-07T03:50:45;-2.40;99.90
3756;DHT22;1893;52.526;13.360;2024-01-07T03:53:11;-2.40;99.90
3756;DHT22;1893;52.526;13.360;2024-01-07T03:55:36;-2.40;99.90
3756;DHT22;1893;52.526;13.360;2024-01-07T03:58:02;-2.40;99.90
3756;DHT22;1893;52.526;13.360;2024-01-07T04:00:28;-2.30;99.90
3756;DHT22;1893;52.526;13.360;2024-01-07T04:02:54;-2.40;99.90
3756;DHT22;1893;52.526;13.360;2024-01-07T04:05:19;-2.40;99.90
3756;DHT22;1893;52.526;13.360;2024-01-07T04:07:45;-2.50;99.90
3756;DHT22;1893;52.526;13.360;2024-01-07T04:10:11;-2.50;99.90
3756;DHT22;1893;52.526;13.360;2024-01-07T04:12:36;-2.50;99.90
3756;DHT22;1893;52.526;13.360;2024-01-07T04:15:03;-2.40;99.90
3756;DHT22;1893;52.526;13.360;2024-01-07T04:17:29;-2.50;99.90
3756;DHT22;1893;52.526;13.360;2024-01-07T04:19:54;-2.50;99.90
3756;DHT22;1893;52.526;13.360;2024-01-07T04:22:20;-2.50;99.90
3756;DHT22;1893;52.526;13.360;2024-01-07T04:24:46;-2.50;99.90
3756;DHT22;1893;52.526;13.360;2024-01-07T04:27:12;-2.50;99.90
3756;DHT22;1893;52.526;13.360;2024-01-07T04:29:37;-2.50;99.90
3756;DHT22;1893;52.526;13.360;2024-01-07T04:32:03;-2.50;99.90
3756;DHT22;1893;52.526;13.360;2024-01-07T04:34:29;-2.50;99.90
3756;DHT22;1893;52.526;13.360;2024-01-07T04:36:54;-2.50;99.90
3756;DHT22;1893;52.526;13.360;2024-01-07T04:39:20;-2.50;99.90
3756;DHT22;1893;52.526;13.360;2024-01-07T04:41:45;-2.60;99.90
3756;DHT22;1893;52.526;13.360;2024-01-07T04:44:11;-2.60;99.90
3756;DHT22;1893;52.526;13.360;2024-01-07T04:46:40;-2.50;99.90
3756;DHT22;1893;52.526;13.360;2024-01-07T04:49:06;-2.50;99.90
3756;DHT22;1893;52.526;13.360;2024-01-07T04:51:32;-2.50;99.90
3756;DHT22;1893;52.526;13.360;2024-01-07T04:53:58;-2.50;99.90
3756;DHT22;1893;52.526;13.360;2024-01-07T04:56:23;-2.50;99.90
3756;DHT22;1893;52.526;13.360;2024-01-07T04:58:49;-2.50;99.90
3756;DHT22;1893;52.526;13.360;2024-01-07T05:01:15;-2.50;99.90
3756;DHT22;1893;52.526;13.360;2024-01-07T05:03:41;-2.60;99.90
3756;DHT22;1893;52.526;13.360;2024-01-07T05:06:10;-2.60;99.90
3756;DHT22;1893;52.526;13.360;2024-01-07T05:08:36;-2.60;99.90
3756;DHT22;1893;52.526;13.360;2024-01-07T05:11:03;-2.50;99.90
3756;DHT22;1893;52.526;13.360;2024-01-07T05:13:30;-2.50;99.90
3756;DHT22;1893;52.526;13.360;2024-01-07T05:15:55;-2.50;99.90
3756;DHT22;1893;52.526;13.360;2024-01-07T05:18:24;-2.40;99.90
3756;DHT22;1893;52.526;13.360;2024-01-07T05:20:51;-2.50;99.90
3756;DHT22;1893;52.526;13.360;2024-01-07T05:23:17;-2.40;99.90
3756;DHT22;1893;52.526;13.360;2024-01-07T05:25:43;-2.40;99.90
3756;DHT22;1893;52.526;13.360;2024-01-07T05:28:10;-2.30;99.90
3756;DHT22;1893;52.526;13.360;2024-01-07T05:30:36;-2.30;99.90
3756;DHT22;1893;52.526;13.360;2024-01-07T05:33:01;-2.30;99.90
3756;DHT22;1893;52.526;13.360;2024-01-07T05:35:27;-2.30;99.90
3756;DHT22;1893;52.526;13.360;2024-01-07T05:37:52;-2.30;99.90
3756;DHT22;1893;52.526;13.360;2024-01-07T05:40:18;-2.10;99.90
3756;DHT22;1893;52.526;13.360;2024-01-07T05:42:44;-2.20;99.90
3756;DHT22;1893;52.526;13.360;2024-01-07T05:45:09;-2.10;99.90
3756;DHT22;1893;52.526;13.360;2024-01-07T05:47:35;-2.20;99.90
3756;DHT22;1893;52.526;13.360;2024-01-07T05:50:01;-2.20;99.90
3756;DHT22;1893;52.526;13.360;2024-01-07T05:52:27;-2.20;99.90
3756;DHT22;1893;52.526;13.360;2024-01-07T05:54:53;-2.20;99.90
3756;DHT22;1893;52.526;13.360;2024-01-07T05:57:19;-2.10;99.90
3756;DHT22;1893;52.526;13.360;2024-01-07T05:59:45;-2.10;99.90
3756;DHT22;1893;52.526;13.360;2024-01-07T06:02:11;-2.00;99.90
3756;DHT22;1893;52.526;13.360;2024-01-07T06:04:38;-2.00;99.90
3756;DHT22;1893;52.526;13.360;2024-01-07T06:07:03;-1.90;99.90
3756;DHT22;1893;52.526;13.360;2024-01-07T06:09:29;-1.90;99.90
3756;DHT22;1893;52.526;13.360;2024-01-07T06:11:55;-1.90;99.90
3756;DHT22;1893;52.526;13.360;2024-01-07T06:14:24;-1.90;99.90
3756;DHT22;1893;52.526;13.360;2024-01-07T06:16:50;-2.00;99.90
3756;DHT22;1893;52.526;13.360;2024-01-07T06:19:16;-2.00;99.90
3756;DHT22;1893;52.526;13.360;2024-01-07T06:21:42;-2.00;99.90
3756;DHT22;1893;52.526;13.360;2024-01-07T06:24:08;-2.00;99.90
3756;DHT22;1893;52.526;13.360;2024-01-07T06:26:34;-2.10;99.90
3756;DHT22;1893;52.526;13.360;2024-01-07T06:29:00;-2.00;99.90
3756;DHT22;1893;52.526;13.360;2024-01-07T06:31:25;-2.00;99.90
3756;DHT22;1893;52.526;13.360;2024-01-07T06:33:51;-2.00;99.90
3756;DHT22;1893;52.526;13.360;2024-01-07T06:36:17;-2.00;99.90
3756;DHT22;1893;52.526;13.360;2024-01-07T06:39:02;-2.00;99.90
3756;DHT22;1893;52.526;13.360;2024-01-07T06:41:30;-2.00;99.90
3756;DHT22;1893;52.526;13.360;2024-01-07T06:43:56;-2.00;99.90
3756;DHT22;1893;52.526;13.360;2024-01-07T06:46:22;-1.90;99.90
3756;DHT22;1893;52.526;13.360;2024-01-07T06:48:48;-1.90;99.90
3756;DHT22;1893;52.526;13.360;2024-01-07T06:51:14;-1.80;99.90
3756;DHT22;1893;52.526;13.360;2024-01-07T06:53:40;-1.90;99.90
3756;DHT22;1893;52.526;13.360;2024-01-07T06:56:06;-2.00;99.90
3756;DHT22;1893;52.526;13.360;2024-01-07T06:58:32;-2.00;99.90
3756;DHT22;1893;52.526;13.360;2024-01-07T07:00:58;-1.90;99.90
3756;DHT22;1893;52.526;13.360;2024-01-07T07:03:23;-2.00;99.90
3756;DHT22;1893;52.526;13.360;2024-01-07T07:05:49;-1.90;99.90
3756;DHT22;1893;52.526;13.360;2024-01-07T07:08:15;-2.00;99.90
3756;DHT22;1893;52.526;13.360;2024-01-07T07:10:41;-1.90;99.90
3756;DHT22;1893;52.526;13.360;2024-01-07T07:13:07;-1.90;99.90
3756;DHT22;1893;52.526;13.360;2024-01-07T07:15:32;-2.00;99.90
3756;DHT22;1893;52.526;13.360;2024-01-07T07:17:58;-2.00;99.90
3756;DHT22;1893;52.526;13.360;2024-01-07T07:20:23;-1.90;99.90
3756;DHT22;1893;52.526;13.360;2024-01-07T07:22:49;-1.90;99.90
3756;DHT22;1893;52.526;13.360;2024-01-07T07:25:15;-1.80;99.90
3756;DHT22;1893;52.526;13.360;2024-01-07T07:27:41;-1.80;99.90
3756;DHT22;1893;52.526;13.360;2024-01-07T07:30:07;-1.90;99.90
3756;DHT22;1893;52.526;13.360;2024-01-07T07:32:33;-1.90;99.90
3756;DHT22;1893;52.526;13.360;2024-01-07T07:34:59;-1.90;99.90
3756;DHT22;1893;52.526;13.360;2024-01-07T07:37:25;-1.90;99.90
3756;DHT22;1893;52.526;13.360;2024-01-07T07:39:50;-1.80;99.90
3756;DHT22;1893;52.526;13.360;2024-01-07T07:42:16;-1.70;99.90
3756;DHT22;1893;52.526;13.360;2024-01-07T07:44:42;-1.70;99.90
3756;DHT22;1893;52.526;13.360;2024-01-07T07:47:08;-1.70;99.90
3756;DHT22;1893;52.526;13.360;2024-01-07T07:49:37;-1.70;99.90
3756;DHT22;1893;52.526;13.360;2024-01-07T07:52:08;-1.70;99.90
3756;DHT22;1893;52.526;13.360;2024-01-07T07:54:34;-1.80;99.90
3756;DHT22;1893;52.526;13.360;2024-01-07T07:56:59;-1.80;99.90
3756;DHT22;1893;52.526;13.360;2024-01-07T07:59:25;-1.60;99.90
3756;DHT22;1893;52.526;13.360;2024-01-07T08:01:51;-1.60;99.90
3756;DHT22;1893;52.526;13.360;2024-01-07T08:04:16;-1.60;99.90
3756;DHT22;1893;52.526;13.360;2024-01-07T08:06:42;-1.60;99.90
3756;DHT22;1893;52.526;13.360;2024-01-07T08:09:08;-1.60;99.90
3756;DHT22;1893;52.526;13.360;2024-01-07T08:11:34;-1.50;99.90
3756;DHT22;1893;52.526;13.360;2024-01-07T08:13:59;-1.60;99.90
3756;DHT22;1893;52.526;13.360;2024-01-07T08:16:27;-1.50;99.90
3756;DHT22;1893;52.526;13.360;2024-01-07T08:18:52;-1.50;99.90
3756;DHT22;1893;52.526;13.360;2024-01-07T08:21:22;-1.50;99.90
3756;DHT22;1893;52.526;13.360;2024-01-07T08:23:48;-1.50;99.90
3756;DHT22;1893;52.526;13.360;2024-01-07T08:26:18;-1.40;99.90
3756;DHT22;1893;52.526;13.360;2024-01-07T08:28:45;-1.40;99.90
3756;DHT22;1893;52.526;13.360;2024-01-07T08:31:10;-1.40;99.90
3756;DHT22;1893;52.526;13.360;2024-01-07T08:33:36;-1.40;99.90
3756;DHT22;1893;52.526;13.360;2024-01-07T08:36:01;-1.40;99.90
3756;DHT22;1893;52.526;13.360;2024-01-07T08:38:27;-1.40;99.90
3756;DHT22;1893;52.526;13.360;2024-01-07T08:40:53;-1.40;99.90
3756;DHT22;1893;52.526;13.360;2024-01-07T08:43:18;-1.40;99.90
3756;DHT22;1893;52.526;13.360;2024-01-07T08:45:44;-1.30;99.90
3756;DHT22;1893;52.526;13.360;2024-01-07T08:48:12;-1.30;99.90
3756;DHT22;1893;52.526;13.360;2024-01-07T08:50:38;-1.30;99.90
3756;DHT22;1893;52.526;13.360;2024-01-07T08:53:04;-1.30;99.90
3756;DHT22;1893;52.526;13.360;2024-01-07T08:55:30;-1.20;99.90
3756;DHT22;1893;52.526;13.360;2024-01-07T08:57:56;-1.20;99.90
3756;DHT22;1893;52.526;13.360;2024-01-07T09:00:22;-1.10;99.90
3756;DHT22;1893;52.526;13.360;2024-01-07T09:02:51;-1.20;99.90
3756;DHT22;1893;52.526;13.360;2024-01-07T09:05:17;-1.10;99.90
3756;DHT22;1893;52.526;13.360;2024-01-07T09:07:43;-1.10;99.90
3756;DHT22;1893;52.526;13.360;2024-01-07T09:10:08;-1.10;99.90
3756;DHT22;1893;52.526;13.360;2024-01-07T09:12:36;-1.10;99.90
3756;DHT22;1893;52.526;13.360;2024-01-07T09:15:04;-1.10;99.90
3756;DHT22;1893;52.526;13.360;2024-01-07T09:17:31;-1.00;99.90
3756;DHT22;1893;52.526;13.360;2024-01-07T09:19:56;-1.00;99.90
3756;DHT22;1893;52.526;13.360;2024-01-07T09:22:22;-1.00;99.90
3756;DHT22;1893;52.526;13.360;2024-01-07T09:24:47;-1.00;99.90
3756;DHT22;1893;52.526;13.360;2024-01-07T09:27:13;-1.00;99.90
3756;DHT22;1893;52.526;13.360;2024-01-07T09:29:39;-1.00;99.90
3756;DHT22;1893;52.526;13.360;2024-01-07T09:32:05;-1.00;99.90
3756;DHT22;1893;52.526;13.360;2024-01-07T09:34:31;-1.00;99.90
3756;DHT22;1893;52.526;13.360;2024-01-07T09:36:56;-1.00;99.90
3756;DHT22;1893;52.526;13.360;2024-01-07T09:39:22;-1.00;99.90
3756;DHT22;1893;52.526;13.360;2024-01-07T09:41:47;-0.90;99.90
3756;DHT22;1893;52.526;13.360;2024-01-07T09:44:13;-0.90;99.90
3756;DHT22;1893;52.526;13.360;2024-01-07T09:46:39;-1.00;99.90
3756;DHT22;1893;52.526;13.360;2024-01-07T09:49:07;-1.00;99.90
3756;DHT22;1893;52.526;13.360;2024-01-07T09:51:35;-0.90;99.90
3756;DHT22;1893;52.526;13.360;2024-01-07T09:54:06;-1.00;99.90
3756;DHT22;1893;52.526;13.360;2024-01-07T09:56:39;-1.00;99.90
3756;DHT22;1893;52.526;13.360;2024-01-07T09:59:08;-1.10;99.90
3756;DHT22;1893;52.526;13.360;2024-01-07T10:01:34;-1.10;99.90
3756;DHT22;1893;52.526;13.360;2024-01-07T10:04:01;-1.20;99.90
3756;DHT22;1893;52.526;13.360;2024-01-07T10:06:27;-1.10;99.90
3756;DHT22;1893;52.526;13.360;2024-01-07T10:08:52;-1.10;99.90
3756;DHT22;1893;52.526;13.360;2024-01-07T10:11:18;-1.10;99.90
3756;DHT22;1893;52.526;13.360;2024-01-07T10:13:47;-1.00;99.90
3756;DHT22;1893;52.526;13.360;2024-01-07T10:16:13;-1.00;99.90
3756;DHT22;1893;52.526;13.360;2024-01-07T10:18:39;-1.00;99.90
3756;DHT22;1893;52.526;13.360;2024-01-07T10:21:07;-1.00;99.90
3756;DHT22;1893;52.526;13.360;2024-01-07T10:23:32;-1.00;99.90
3756;DHT22;1893;52.526;13.360;2024-01-07T10:26:01;-1.00;99.90
3756;DHT22;1893;52.526;13.360;2024-01-07T10:28:28;-1.00;99.90
3756;DHT22;1893;52.526;13.360;2024-01-07T10:30:53;-1.00;99.90
3756;DHT22;1893;52.526;13.360;2024-01-07T10:33:19;-0.90;99.90
3756;DHT22;1893;52.526;13.360;2024-01-07T10:36:02;-1.00;99.90
3756;DHT22;1893;52.526;13.360;2024-01-07T10:38:29;-0.90;99.90
3756;DHT22;1893;52.526;13.360;2024-01-07T10:40:56;-0.90;99.90
3756;DHT22;1893;52.526;13.360;2024-01-07T10:43:26;-0.80;99.90
3756;DHT22;1893;52.526;13.360;2024-01-07T10:45:54;-0.80;99.90
3756;DHT22;1893;52.526;13.360;2024-01-07T10:48:21;-0.80;99.90
3756;DHT22;1893;52.526;13.360;2024-01-07T10:50:48;-0.80;99.90
3756;DHT22;1893;52.526;13.360;2024-01-07T10:53:20;-0.70;99.90
3756;DHT22;1893;52.526;13.360;2024-01-07T10:56:05;-0.60;99.90
3756;DHT22;1893;52.526;13.360;2024-01-07T10:58:33;-0.70;99.90
3756;DHT22;1893;52.526;13.360;2024-01-07T11:01:01;-0.60;99.90
3756;DHT22;1893;52.526;13.360;2024-01-07T11:09:06;-0.50;99.90
3756;DHT22;1893;52.526;13.360;2024-01-07T11:11:40;-0.50;99.90
3756;DHT22;1893;52.526;13.360;2024-01-07T11:14:40;-0.50;99.90
3756;DHT22;1893;52.526;13.360;2024-01-07T11:17:06;-0.40;99.90
3756;DHT22;1893;52.526;13.360;2024-01-07T11:19:33;-0.50;99.90
3756;DHT22;1893;52.526;13.360;2024-01-07T11:22:25;-0.50;99.90
3756;DHT22;1893;52.526;13.360;2024-01-07T11:24:58;-0.60;99.90
3756;DHT22;1893;52.526;13.360;2024-01-07T11:27:25;-0.60;99.90
3756;DHT22;1893;52.526;13.360;2024-01-07T11:29:58;-0.50;99.90
3756;DHT22;1893;52.526;13.360;2024-01-07T11:32:30;-0.50;99.90
3756;DHT22;1893;52.526;13.360;2024-01-07T11:34:55;-0.40;99.90
3756;DHT22;1893;52.526;13.360;2024-01-07T11:37:24;-0.30;99.90
3756;DHT22;1893;52.526;13.360;2024-01-07T11:39:53;-0.40;99.90
3756;DHT22;1893;52.526;13.360;2024-01-07T11:42:21;-0.40;99.90
3756;DHT22;1893;52.526;13.360;2024-01-07T11:44:57;-0.40;99.90
3756;DHT22;1893;52.526;13.360;2024-01-07T11:47:24;-0.40;99.90
3756;DHT22;1893;52.526;13.360;2024-01-07T11:49:50;-0.40;99.90
3756;DHT22;1893;52.526;13.360;2024-01-07T11:52:15;-0.40;99.90
3756;DHT22;1893;52.526;13.360;2024-01-07T11:54:41;-0.40;99.90
3756;DHT22;1893;52.526;13.360;2024-01-07T11:57:07;-0.40;99.90
3756;DHT22;1893;52.526;13.360;2024-01-07T11:59:34;-0.40;99.90
3756;DHT22;1893;52.526;13.360;2024-01-07T12:02:00;-0.40;99.90
3756;DHT22;1893;52.526;13.360;2024-01-07T12:04:27;-0.40;99.90
3756;DHT22;1893;52.526;13.360;2024-01-07T12:06:53;-0.50;99.90
3756;DHT22;1893;52.526;13.360;2024-01-07T12:09:19;-0.40;99.90
3756;DHT22;1893;52.526;13.360;2024-01-07T12:11:45;-0.40;99.90
3756;DHT22;1893;52.526;13.360;2024-01-07T12:14:11;-0.40;99.90
3756;DHT22;1893;52.526;13.360;2024-01-07T12:16:37;-0.30;99.90
3756;DHT22;1893;52.526;13.360;2024-01-07T12:19:03;-0.30;99.90
3756;DHT22;1893;52.526;13.360;2024-01-07T12:21:28;-0.40;99.90
3756;DHT22;1893;52.526;13.360;2024-01-07T12:23:55;-0.30;99.90
3756;DHT22;1893;52.526;13.360;2024-01-07T12:26:26;-0.40;99.90
3756;DHT22;1893;52.526;13.360;2024-01-07T12:29:01;-0.30;99.90
3756;DHT22;1893;52.526;13.360;2024-01-07T12:31:33;-0.30;99.90
3756;DHT22;1893;52.526;13.360;2024-01-07T12:33:59;-0.30;99.90
3756;DHT22;1893;52.526;13.360;2024-01-07T12:36:25;-0.30;99.90
3756;DHT22;1893;52.526;13.360;2024-01-07T12:38:52;-0.30;99.90
3756;DHT22;1893;52.526;13.360;2024-01-07T12:41:20;-0.10;99.90
3756;DHT22;1893;52.526;13.360;2024-01-07T12:43:45;-0.20;99.90
3756;DHT22;1893;52.526;13.360;2024-01-07T12:46:11;-0.20;99.90
3756;DHT22;1893;52.526;13.360;2024-01-07T12:48:37;-0.20;99.90
3756;DHT22;1893;52.526;13.360;2024-01-07T12:51:02;-0.10;99.90
3756;DHT22;1893;52.526;13.360;2024-01-07T12:53:28;-0.10;99.90
3756;DHT22;1893;52.526;13.360;2024-01-07T12:55:54;-0.10;99.90
3756;DHT22;1893;52.526;13.360;2024-01-07T12:58:20;-0.10;99.90
3756;DHT22;1893;52.526;13.360;2024-01-07T13:00:46;-0.10;99.90
3756;DHT22;1893;52.526;13.360;2024-01-07T13:03:12;-0.10;99.90
3756;DHT22;1893;52.526;13.360;2024-01-07T13:05:45;-0.10;99.90
3756;DHT22;1893;52.526;13.360;2024-01-07T13:08:12;-0.10;99.90
3756;DHT22;1893;52.526;13.360;2024-01-07T13:10:39;-0.10;99.90
3756;DHT22;1893;52.526;13.360;2024-01-07T13:13:04;-0.10;99.90
3756;DHT22;1893;52.526;13.360;2024-01-07T13:15:30;-0.10;99.90
3756;DHT22;1893;52.526;13.360;2024-01-07T13:17:57;-0.10;99.90
3756;DHT22;1893;52.526;13.360;2024-01-07T13:20:22;-0.10;99.90
3756;DHT22;1893;52.526;13.360;2024-01-07T13:22:48;-0.10;99.90
3756;DHT22;1893;52.526;13.360;2024-01-07T13:25:14;-0.10;99.90
3756;DHT22;1893;52.526;13.360;2024-01-07T13:27:39;0.00;99.90
3756;DHT22;1893;52.526;13.360;2024-01-07T13:30:06;0.00;99.90
3756;DHT22;1893;52.526;13.360;2024-01-07T13:32:32;0.00;99.90
3756;DHT22;1893;52.526;13.360;2024-01-07T13:35:05;0.00;99.90
3756;DHT22;1893;52.526;13.360;2024-01-07T13:37:31;0.00;99.90
3756;DHT22;1893;52.526;13.360;2024-01-07T13:39:57;0.00;99.90
3756;DHT22;1893;52.526;13.360;2024-01-07T13:42:22;-0.10;99.90
3756;DHT22;1893;52.526;13.360;2024-01-07T13:44:48;-0.10;99.90
3756;DHT22;1893;52.526;13.360;2024-01-07T13:47:14;-0.10;99.90
3756;DHT22;1893;52.526;13.360;2024-01-07T13:49:41;-0.10;99.90
3756;DHT22;1893;52.526;13.360;2024-01-07T13:52:06;-0.10;99.90
3756;DHT22;1893;52.526;13.360;2024-01-07T13:54:32;-0.10;99.90
3756;DHT22;1893;52.526;13.360;2024-01-07T13:56:58;0.00;99.90
3756;DHT22;1893;52.526;13.360;2024-01-07T13:59:25;-0.10;99.90
3756;DHT22;1893;52.526;13.360;2024-01-07T14:01:51;0.10;99.90
3756;DHT22;1893;52.526;13.360;2024-01-07T14:04:17;0.00;99.90
3756;DHT22;1893;52.526;13.360;2024-01-07T14:06:42;0.00;99.90
3756;DHT22;1893;52.526;13.360;2024-01-07T14:09:09;-0.10;99.90
3756;DHT22;1893;52.526;13.360;2024-01-07T14:11:35;-0.10;99.90
3756;DHT22;1893;52.526;13.360;2024-01-07T14:14:01;-0.10;99.90
3756;DHT22;1893;52.526;13.360;2024-01-07T14:16:27;0.00;99.90
3756;DHT22;1893;52.526;13.360;2024-01-07T14:18:53;0.00;99.90
3756;DHT22;1893;52.526;13.360;2024-01-07T14:21:18;0.00;99.90
3756;DHT22;1893;52.526;13.360;2024-01-07T14:23:47;0.00;99.90
3756;DHT22;1893;52.526;13.360;2024-01-07T14:26:13;-0.10;99.90
3756;DHT22;1893;52.526;13.360;2024-01-07T14:28:40;0.00;99.90
3756;DHT22;1893;52.526;13.360;2024-01-07T14:31:05;0.00;99.90
3756;DHT22;1893;52.526;13.360;2024-01-07T14:33:32;0.10;99.90
3756;DHT22;1893;52.526;13.360;2024-01-07T14:35:58;0.10;99.90
3756;DHT22;1893;52.526;13.360;2024-01-07T14:38:23;0.00;99.90
3756;DHT22;1893;52.526;13.360;2024-01-07T14:40:50;-0.10;99.90
3756;DHT22;1893;52.526;13.360;2024-01-07T14:43:17;-0.10;99.90
3756;DHT22;1893;52.526;13.360;2024-01-07T14:45:43;-0.10;99.90
3756;DHT22;1893;52.526;13.360;2024-01-07T14:48:08;0.00;99.90
3756;DHT22;1893;52.526;13.360;2024-01-07T14:50:34;0.00;99.90
3756;DHT22;1893;52.526;13.360;2024-01-07T14:53:01;0.00;99.90
3756;DHT22;1893;52.526;13.360;2024-01-07T14:55:26;0.10;99.90
3756;DHT22;1893;52.526;13.360;2024-01-07T14:57:52;0.10;99.90
3756;DHT22;1893;52.526;13.360;2024-01-07T15:00:18;0.10;99.90
3756;DHT22;1893;52.526;13.360;2024-01-07T15:02:43;0.10;99.90
3756;DHT22;1893;52.526;13.360;2024-01-07T15:05:09;0.00;99.90
3756;DHT22;1893;52.526;13.360;2024-01-07T15:07:35;0.00;99.90
3756;DHT22;1893;52.526;13.360;2024-01-07T15:10:00;0.00;99.90
3756;DHT22;1893;52.526;13.360;2024-01-07T15:12:26;0.10;99.90
3756;DHT22;1893;52.526;13.360;2024-01-07T15:15:02;0.10;99.90
3756;DHT22;1893;52.526;13.360;2024-01-07T15:17:30;0.10;99.90
3756;DHT22;1893;52.526;13.360;2024-01-07T15:19:56;0.10;99.90
3756;DHT22;1893;52.526;13.360;2024-01-07T15:22:21;0.10;99.90
3756;DHT22;1893;52.526;13.360;2024-01-07T15:24:47;0.00;99.90
3756;DHT22;1893;52.526;13.360;2024-01-07T15:27:13;0.00;99.90
3756;DHT22;1893;52.526;13.360;2024-01-07T15:29:38;0.00;99.90
3756;DHT22;1893;52.526;13.360;2024-01-07T15:32:04;0.00;99.90
3756;DHT22;1893;52.526;13.360;2024-01-07T15:34:30;0.00;99.90
3756;DHT22;1893;52.526;13.360;2024-01-07T15:36:55;0.00;99.90
3756;DHT22;1893;52.526;13.360;2024-01-07T15:39:21;0.10;99.90
3756;DHT22;1893;52.526;13.360;2024-01-07T15:41:47;0.10;99.90
3756;DHT22;1893;52.526;13.360;2024-01-07T15:44:12;0.00;99.90
3756;DHT22;1893;52.526;13.360;2024-01-07T15:46:38;0.00;99.90
3756;DHT22;1893;52.526;13.360;2024-01-07T15:49:03;0.00;99.90